createdAt,value
2018-08-09T00:00:19.216Z,4.83
2018-08-09T00:02:49.107Z,5.20
2018-08-09T00:05:18.812Z,5.17
2018-08-09T00:07:49.081Z,4.77
2018-08-09T00:10:18.841Z,4.57
2018-08-09T00:12:48.504Z,4.93
2018-08-09T00:15:18.265Z,5.23
2018-08-09T00:17:47.932Z,5.13
2018-08-09T00:20:17.668Z,4.93
2018-08-09T00:22:47.722Z,4.70
2018-08-09T00:25:17.429Z,4.60
2018-08-09T00:27:47.191Z,4.87
2018-08-09T00:30:16.871Z,5.20
2018-08-09T00:32:46.940Z,4.53
2018-08-09T00:35:17.348Z,6.30
2018-08-09T00:37:47.064Z,4.97
2018-08-09T00:40:17.255Z,4.73
2018-08-09T00:42:47.440Z,4.97
2018-08-09T00:45:17.148Z,4.93
2018-08-09T00:47:46.817Z,5.17
2018-08-09T00:50:16.997Z,5.23
2018-08-09T00:52:46.684Z,5.40
2018-08-09T00:55:16.376Z,5.17
2018-08-09T00:57:46.481Z,4.90
2018-08-09T01:00:16.608Z,5.10
2018-08-09T01:02:46.349Z,5.70
2018-08-09T01:05:16.751Z,5.20
2018-08-09T01:07:46.449Z,5.57
2018-08-09T01:10:16.187Z,5.33
2018-08-09T01:12:46.061Z,5.63
2018-08-09T01:15:15.799Z,5.20
2018-08-09T01:17:45.508Z,4.93
2018-08-09T01:20:15.711Z,5.83
2018-08-09T01:22:45.412Z,6.27
2018-08-09T01:25:15.109Z,6.07
2018-08-09T01:27:44.848Z,6.20
2018-08-09T01:30:14.520Z,5.87
2018-08-09T01:32:44.969Z,5.93
2018-08-09T01:35:14.689Z,5.70
2018-08-09T01:37:44.444Z,5.67
2018-08-09T01:40:14.652Z,6.40
2018-08-09T01:42:54.844Z,7.00
2018-08-09T01:45:24.632Z,6.83
2018-08-09T01:47:54.715Z,6.57
2018-08-09T01:50:24.467Z,6.53
2018-08-09T01:52:54.440Z,6.50
2018-08-09T01:55:24.635Z,6.40
2018-08-09T01:57:54.308Z,6.60
2018-08-09T02:00:24.092Z,6.63
2018-08-09T02:02:54.697Z,6.77
2018-08-09T02:05:24.364Z,6.00
2018-08-09T02:07:54.168Z,7.40
2018-08-09T02:10:24.291Z,7.07
2018-08-09T02:12:54.006Z,6.40
2018-08-09T02:15:24.172Z,7.00
2018-08-09T02:17:53.895Z,6.17
2018-08-09T02:20:24.017Z,6.30
2018-08-09T02:22:53.740Z,5.77
2018-08-09T02:25:23.424Z,6.50
2018-08-09T02:27:53.124Z,6.17
2018-08-09T02:30:23.846Z,6.50
2018-08-09T02:32:53.971Z,6.30
2018-08-09T02:35:23.737Z,7.20
2018-08-09T02:37:53.424Z,6.70
2018-08-09T02:40:23.464Z,6.00
2018-08-09T02:42:53.140Z,6.70
2018-08-09T02:45:22.864Z,7.20
2018-08-09T02:47:52.589Z,6.93
2018-08-09T02:50:22.753Z,7.40
2018-08-09T02:52:52.749Z,7.53
2018-08-09T02:55:22.513Z,7.70
2018-08-09T02:57:52.232Z,7.27
2018-08-09T03:00:22.010Z,7.07
2018-08-09T03:02:52.004Z,7.03
2018-08-09T03:05:21.688Z,6.63
2018-08-09T03:07:51.556Z,6.63
2018-08-09T03:10:21.788Z,6.77
2018-08-09T03:12:51.512Z,6.60
2018-08-09T03:15:21.219Z,6.67
2018-08-09T03:17:51.457Z,7.13
2018-08-09T03:20:21.272Z,7.00
2018-08-09T03:22:50.960Z,6.97
2018-08-09T03:25:20.936Z,7.20
2018-08-09T03:27:50.711Z,7.77
2018-08-09T03:30:20.435Z,7.87
2018-08-09T03:32:50.522Z,7.40
2018-08-09T03:35:20.436Z,7.47
2018-08-09T03:37:50.145Z,7.37
2018-08-09T03:40:19.867Z,7.43
2018-08-09T03:42:49.572Z,7.30
2018-08-09T03:45:19.311Z,7.20
2018-08-09T03:47:49.571Z,7.47
2018-08-09T03:50:19.428Z,7.40
2018-08-09T03:52:49.131Z,6.90
2018-08-09T03:55:19.367Z,7.57
2018-08-09T03:57:49.182Z,7.67
2018-08-09T04:00:19.375Z,7.90
2018-08-09T04:02:49.076Z,7.73
2018-08-09T04:05:18.951Z,7.90
2018-08-09T04:07:49.032Z,8.83
2018-08-09T04:10:27.434Z,7.93
2018-08-09T04:13:00.521Z,8.90
2018-08-09T04:15:30.690Z,8.30
2018-08-09T04:18:00.405Z,8.40
2018-08-09T04:20:30.514Z,8.67
2018-08-09T04:23:00.283Z,8.30
2018-08-09T04:25:29.981Z,8.60
2018-08-09T04:27:59.708Z,7.87
2018-08-09T04:30:29.773Z,8.37
2018-08-09T04:32:59.575Z,7.37
2018-08-09T04:35:29.493Z,8.27
2018-08-09T04:38:01.176Z,8.13
2018-08-09T04:40:31.453Z,8.37
2018-08-09T04:43:01.133Z,8.33
2018-08-09T04:45:31.289Z,8.10
2018-08-09T04:48:01.538Z,8.10
2018-08-09T04:50:31.246Z,18.20
2018-08-09T04:53:00.931Z,17.00
2018-08-09T04:55:30.772Z,9.20
2018-08-09T04:58:00.483Z,7.90
2018-08-09T05:00:30.393Z,8.43
2018-08-09T05:03:00.739Z,7.83
2018-08-09T05:05:30.540Z,8.00
2018-08-09T05:08:00.232Z,7.40
2018-08-09T05:10:29.949Z,7.30
2018-08-09T05:12:59.859Z,7.03
2018-08-09T05:15:29.955Z,7.63
2018-08-09T05:17:59.684Z,6.37
2018-08-09T05:20:29.476Z,6.60
2018-08-09T05:22:59.621Z,5.97
2018-08-09T05:25:29.336Z,5.50
2018-08-09T05:27:59.189Z,6.00
2018-08-09T05:30:29.251Z,5.40
2018-08-09T05:32:59.147Z,5.00
2018-08-09T05:35:29.145Z,5.13
2018-08-09T05:37:59.432Z,5.20
2018-08-09T05:40:29.740Z,4.60
2018-08-09T05:43:02.478Z,4.63
2018-08-09T05:45:34.460Z,4.30
2018-08-09T05:48:04.373Z,4.50
2018-08-09T05:50:36.871Z,4.73
2018-08-09T05:53:07.554Z,4.73
2018-08-09T05:55:37.636Z,4.30
2018-08-09T05:58:11.474Z,4.27
2018-08-09T06:00:43.835Z,4.27
2018-08-09T06:03:13.565Z,5.27
2018-08-09T06:05:44.009Z,4.33
2018-08-09T06:08:13.952Z,4.03
2018-08-09T06:10:43.704Z,4.33
2018-08-09T06:13:13.508Z,4.00
2018-08-09T06:15:44.491Z,4.03
2018-08-09T06:18:14.241Z,4.30
2018-08-09T06:20:44.436Z,3.83
2018-08-09T06:23:14.160Z,3.70
2018-08-09T06:25:43.984Z,3.67
2018-08-09T06:28:14.229Z,3.87
2018-08-09T06:30:44.999Z,3.67
2018-08-09T06:33:15.091Z,3.60
2018-08-09T06:35:44.943Z,3.60
2018-08-09T06:38:15.025Z,3.73
2018-08-09T06:40:44.764Z,3.77
2018-08-09T06:43:14.505Z,3.53
2018-08-09T06:45:44.793Z,3.30
2018-08-09T06:48:14.597Z,3.73
2018-08-09T06:50:44.256Z,3.47
2018-08-09T06:53:13.968Z,3.27
2018-08-09T06:55:44.572Z,3.27
2018-08-09T06:58:14.784Z,3.50
2018-08-09T07:00:44.753Z,3.20
2018-08-09T07:03:15.410Z,3.70
2018-08-09T07:05:57.260Z,3.20
2018-08-09T07:08:27.256Z,3.50
2018-08-09T07:10:57.307Z,3.67
2018-08-09T07:13:27.202Z,3.23
2018-08-09T07:15:57.232Z,3.73
2018-08-09T07:18:27.342Z,3.47
2018-08-09T07:20:57.756Z,3.30
2018-08-09T07:23:27.872Z,3.40
2018-08-09T07:25:57.683Z,3.43
2018-08-09T07:28:27.756Z,4.00
2018-08-09T07:30:57.900Z,4.50
2018-08-09T07:33:27.664Z,3.73
2018-08-09T07:35:59.207Z,3.43
2018-08-09T07:38:30.133Z,3.30
2018-08-09T07:41:02.099Z,4.10
2018-08-09T07:43:36.008Z,3.17
2018-08-09T07:46:07.159Z,3.53
2018-08-09T07:48:37.797Z,3.80
2018-08-09T07:51:08.839Z,3.80
2018-08-09T07:53:40.886Z,3.40
2018-08-09T07:56:12.073Z,3.70
2018-08-09T07:58:41.793Z,4.00
2018-08-09T08:01:12.219Z,3.50
2018-08-09T08:03:42.388Z,3.70
2018-08-09T08:06:12.604Z,3.30
2018-08-09T08:08:42.714Z,3.80
2018-08-09T08:11:12.589Z,3.70
2018-08-09T08:13:42.951Z,3.87
2018-08-09T08:16:12.950Z,4.37
2018-08-09T08:18:43.648Z,3.73
2018-08-09T08:21:14.707Z,3.87
2018-08-09T08:23:44.738Z,3.83
2018-08-09T08:26:18.589Z,3.90
2018-08-09T08:28:52.511Z,3.90
2018-08-09T08:31:23.771Z,3.33
2018-08-09T08:34:00.308Z,3.30
2018-08-09T08:36:31.074Z,3.80
2018-08-09T08:39:01.643Z,3.33
2018-08-09T08:41:34.144Z,4.17
2018-08-09T08:44:04.331Z,3.50
2018-08-09T08:46:35.441Z,3.73
2018-08-09T08:49:05.579Z,3.63
2018-08-09T08:51:37.337Z,3.63
2018-08-09T08:54:07.140Z,3.83
2018-08-09T08:56:39.161Z,3.80
2018-08-09T08:59:09.193Z,4.40
2018-08-09T09:01:39.985Z,3.90
2018-08-09T09:04:10.958Z,4.07
2018-08-09T09:06:40.988Z,3.77
2018-08-09T09:09:13.300Z,4.07
2018-08-09T09:11:43.841Z,4.70
2018-08-09T09:14:14.248Z,4.27
2018-08-09T09:16:44.352Z,3.63
2018-08-09T09:19:14.394Z,3.57
2018-08-09T09:21:44.525Z,4.40
2018-08-09T09:24:14.361Z,4.53
2018-08-09T09:26:44.293Z,4.97
2018-08-09T09:29:13.987Z,4.60
2018-08-09T09:31:44.220Z,4.30
2018-08-09T09:34:14.045Z,3.60
2018-08-09T09:36:44.227Z,3.80
2018-08-09T09:39:14.502Z,3.70
2018-08-09T09:41:44.425Z,3.30
2018-08-09T09:44:14.397Z,3.40
2018-08-09T09:46:44.400Z,3.70
2018-08-09T09:49:15.893Z,3.80
2018-08-09T09:51:46.374Z,4.20
2018-08-09T09:54:16.960Z,3.70
2018-08-09T09:56:46.764Z,3.53
2018-08-09T09:59:16.546Z,3.37
2018-08-09T10:01:46.789Z,3.30
2018-08-09T10:04:16.737Z,3.50
2018-08-09T10:06:46.721Z,3.80
2018-08-09T10:09:16.423Z,4.10
2018-08-09T10:11:47.278Z,4.40
2018-08-09T10:14:17.275Z,4.00
2018-08-09T10:16:48.305Z,5.03
2018-08-09T10:19:18.408Z,4.40
2018-08-09T10:21:48.132Z,4.80
2018-08-09T10:24:17.812Z,4.27
2018-08-09T10:26:47.526Z,4.50
2018-08-09T10:29:17.720Z,4.00
2018-08-09T10:31:47.974Z,4.00
2018-08-09T10:34:17.645Z,4.47
2018-08-09T10:36:47.632Z,4.83
2018-08-09T10:39:17.800Z,4.57
2018-08-09T10:41:47.580Z,3.80
2018-08-09T10:44:17.804Z,4.40
2018-08-09T10:46:47.503Z,4.10
2018-08-09T10:49:17.281Z,4.43
2018-08-09T10:51:47.515Z,4.80
2018-08-09T10:54:17.220Z,9.50
2018-08-09T10:56:46.936Z,6.27
2018-08-09T10:59:16.636Z,9.83
2018-08-09T11:01:46.807Z,4.43
2018-08-09T11:04:16.536Z,4.17
2018-08-09T11:06:46.249Z,4.80
2018-08-09T11:09:16.041Z,5.80
2018-08-09T11:11:45.740Z,4.63
2018-08-09T11:14:15.748Z,4.43
2018-08-09T11:16:45.457Z,4.40
2018-08-09T11:19:15.148Z,4.67
2018-08-09T11:21:45.180Z,4.27
2018-08-09T11:24:14.918Z,4.80
2018-08-09T11:26:44.612Z,4.97
2018-08-09T11:29:14.712Z,4.43
2018-08-09T11:31:44.383Z,4.33
2018-08-09T11:34:14.075Z,4.40
2018-08-09T11:36:43.799Z,4.30
2018-08-09T11:39:13.812Z,4.80
2018-08-09T11:41:43.904Z,4.50
2018-08-09T11:44:13.639Z,4.20
2018-08-09T11:46:43.340Z,4.33
2018-08-09T11:49:13.430Z,4.33
2018-08-09T11:51:43.141Z,4.47
2018-08-09T11:54:12.824Z,7.17
2018-08-09T11:56:43.101Z,4.30
2018-08-09T11:59:12.832Z,4.50
2018-08-09T12:01:42.532Z,4.27
2018-08-09T12:04:12.841Z,4.60
2018-08-09T12:06:42.556Z,4.20
2018-08-09T12:09:16.925Z,4.40
2018-08-09T12:11:47.508Z,4.50
2018-08-09T12:14:17.693Z,4.17
2018-08-09T12:16:47.429Z,4.73
2018-08-09T12:19:17.550Z,4.87
2018-08-09T12:21:47.538Z,5.00
2018-08-09T12:24:17.449Z,4.40
2018-08-09T12:26:47.154Z,4.60
2018-08-09T12:29:25.476Z,4.40
2018-08-09T12:31:55.592Z,4.57
2018-08-09T12:34:25.372Z,4.47
2018-08-09T12:36:55.882Z,4.43
2018-08-09T12:39:25.744Z,4.10
2018-08-09T12:41:55.496Z,4.40
2018-08-09T12:44:26.116Z,4.33
2018-08-09T12:46:56.080Z,4.33
2018-08-09T12:49:25.928Z,4.43
2018-08-09T12:51:56.124Z,4.93
2018-08-09T12:54:26.134Z,4.20
2018-08-09T12:56:55.825Z,4.60
2018-08-09T12:59:26.268Z,4.87
2018-08-09T13:01:55.952Z,5.37
2018-08-09T13:04:26.565Z,4.43
2018-08-09T13:06:57.834Z,4.77
2018-08-09T13:09:29.491Z,4.90
2018-08-09T13:11:59.344Z,4.40
2018-08-09T13:14:30.097Z,4.23
2018-08-09T13:16:59.995Z,4.73
2018-08-09T13:19:30.460Z,5.03
2018-08-09T13:22:00.567Z,4.70
2018-08-09T13:24:30.276Z,4.80
2018-08-09T13:27:00.677Z,4.97
2018-08-09T13:29:32.329Z,5.50
2018-08-09T13:32:02.676Z,5.33
2018-08-09T13:34:32.804Z,6.10
2018-08-09T13:37:03.649Z,5.10
2018-08-09T13:39:34.110Z,5.20
2018-08-09T13:42:03.935Z,5.30
2018-08-09T13:44:33.968Z,5.00
2018-08-09T13:47:03.800Z,5.00
2018-08-09T13:49:48.297Z,5.17
2018-08-09T13:52:18.588Z,4.50
2018-08-09T13:54:48.864Z,4.63
2018-08-09T13:57:18.588Z,4.73
2018-08-09T13:59:48.653Z,4.90
2018-08-09T14:02:18.370Z,5.27
2018-08-09T14:04:48.328Z,4.73
2018-08-09T14:07:18.376Z,5.13
2018-08-09T14:09:48.436Z,4.70
2018-08-09T14:12:18.156Z,4.90
2018-08-09T14:14:48.439Z,4.63
2018-08-09T14:17:18.152Z,4.90
2018-08-09T14:19:47.972Z,4.80
2018-08-09T14:22:18.146Z,4.30
2018-08-09T14:24:47.950Z,4.30
2018-08-09T14:27:17.745Z,4.70
2018-08-09T14:29:48.157Z,4.30
2018-08-09T14:32:17.872Z,4.43
2018-08-09T14:34:47.568Z,4.53
2018-08-09T14:37:17.368Z,4.33
2018-08-09T14:39:47.189Z,4.20
2018-08-09T14:42:17.269Z,4.47
2018-08-09T14:44:47.220Z,4.40
2018-08-09T14:50:27.794Z,4.17
2018-08-09T14:52:58.005Z,4.20
2018-08-09T14:55:28.124Z,4.00
2018-08-09T14:57:58.495Z,4.40
2018-08-09T15:00:28.373Z,4.40
2018-08-09T15:02:58.148Z,4.60
2018-08-09T15:05:28.096Z,4.80
2018-08-09T15:07:57.912Z,4.60
2018-08-09T15:10:28.367Z,4.30
2018-08-09T15:12:58.532Z,5.03
2018-08-09T15:15:28.821Z,4.63
2018-08-09T15:17:58.896Z,4.63
2018-08-09T15:20:28.841Z,5.00
2018-08-09T15:22:59.253Z,5.13
2018-08-09T15:25:29.268Z,4.53
2018-08-09T15:27:59.105Z,4.50
2018-08-09T15:30:29.740Z,4.30
2018-08-09T15:32:59.553Z,4.40
2018-08-09T15:35:29.235Z,5.03
2018-08-09T15:37:58.991Z,5.00
2018-08-09T15:40:28.732Z,5.17
2018-08-09T15:42:58.481Z,5.00
2018-08-09T15:45:28.308Z,5.03
2018-08-09T15:47:58.622Z,5.00
2018-08-09T15:50:28.439Z,5.10
2018-08-09T15:52:58.207Z,5.83
2018-08-09T15:55:28.482Z,5.70
2018-08-09T15:57:58.253Z,5.60
2018-08-09T16:00:28.058Z,5.43
2018-08-09T16:02:58.240Z,6.03
2018-08-09T16:05:32.407Z,6.20
2018-08-09T16:08:02.200Z,5.60
2018-08-09T16:10:32.537Z,5.90
2018-08-09T16:13:12.456Z,6.00
2018-08-09T16:15:42.312Z,5.50
2018-08-09T16:18:12.404Z,6.90
2018-08-09T16:20:42.160Z,5.60
2018-08-09T16:23:11.929Z,5.80
2018-08-09T16:25:42.461Z,6.33
2018-08-09T16:28:12.401Z,6.00
2018-08-09T16:30:42.132Z,6.10
2018-08-09T16:33:11.860Z,6.00
2018-08-09T16:35:41.636Z,6.20
2018-08-09T16:38:11.931Z,6.70
2018-08-09T16:40:41.728Z,6.30
2018-08-09T16:43:11.459Z,6.07
2018-08-09T16:45:41.707Z,6.17
2018-08-09T16:48:23.277Z,5.90
2018-08-09T16:50:54.390Z,6.40
2018-08-09T16:53:24.420Z,6.30
2018-08-09T16:55:54.179Z,7.10
2018-08-09T16:58:23.870Z,8.80
2018-08-09T17:00:53.996Z,6.63
2018-08-09T17:03:23.736Z,6.50
2018-08-09T17:05:54.018Z,7.97
2018-08-09T17:08:24.849Z,6.70
2018-08-09T17:10:55.155Z,6.80
2018-08-09T17:13:24.946Z,6.27
2018-08-09T17:15:55.237Z,5.10
2018-08-09T17:18:25.026Z,4.43
2018-08-09T17:20:55.616Z,4.60
2018-08-09T17:23:25.744Z,5.80
2018-08-09T17:25:55.788Z,5.70
2018-08-09T17:28:25.632Z,5.73
2018-08-09T17:30:55.899Z,6.30
2018-08-09T17:33:28.580Z,6.63
2018-08-09T17:35:59.651Z,7.23
2018-08-09T17:38:30.120Z,7.90
2018-08-09T17:40:59.954Z,8.60
2018-08-09T17:43:29.826Z,8.70
2018-08-09T17:46:00.001Z,6.27
2018-08-09T17:48:29.785Z,6.33
2018-08-09T17:50:59.500Z,6.07
2018-08-09T17:53:29.577Z,5.40
2018-08-09T17:55:59.445Z,6.30
2018-08-09T17:58:31.341Z,5.87
2018-08-09T18:01:01.484Z,6.50
2018-08-09T18:03:31.580Z,5.67
2018-08-09T18:06:01.432Z,5.33
2018-08-09T18:08:31.564Z,5.53
2018-08-09T18:11:01.356Z,18.67
2018-08-09T18:13:31.117Z,90.97
2018-08-09T18:16:01.176Z,403.73
2018-08-09T18:18:30.934Z,219.23
2018-08-09T18:21:00.668Z,47.00
2018-08-09T18:23:30.812Z,14.97
2018-08-09T18:26:00.551Z,12.03
2018-08-09T18:28:30.244Z,9.87
2018-08-09T18:31:00.082Z,6.30
2018-08-09T18:33:29.905Z,6.47
2018-08-09T18:35:59.724Z,11.33
2018-08-09T18:38:29.430Z,10.50
2018-08-09T18:41:00.028Z,7.17
2018-08-09T18:43:29.784Z,7.93
2018-08-09T18:45:59.696Z,39.40
2018-08-09T18:48:29.424Z,75.37
2018-08-09T18:50:59.252Z,229.60
2018-08-09T18:53:29.036Z,116.63
2018-08-09T18:55:59.095Z,44.40
2018-08-09T18:58:28.817Z,25.57
2018-08-09T19:00:58.720Z,20.13
2018-08-09T19:03:28.432Z,15.67
2018-08-09T19:05:58.277Z,12.13
2018-08-09T19:08:28.036Z,9.50
2018-08-09T19:10:57.777Z,8.80
2018-08-09T19:13:27.615Z,8.73
2018-08-09T19:15:57.427Z,8.47
2018-08-09T19:18:27.146Z,8.87
2018-08-09T19:21:10.120Z,9.83
2018-08-09T19:23:44.479Z,8.50
2018-08-09T19:26:14.260Z,34.03
2018-08-09T19:28:43.939Z,9.10
2018-08-09T19:31:13.792Z,9.77
2018-08-09T19:33:44.044Z,9.17
2018-08-09T19:36:13.771Z,8.83
2018-08-09T19:38:44.108Z,9.83
2018-08-09T19:41:13.901Z,9.07
2018-08-09T19:43:43.655Z,8.83
2018-08-09T19:46:13.924Z,7.33
2018-08-09T19:48:43.660Z,7.23
2018-08-09T19:51:13.419Z,7.17
2018-08-09T19:53:43.621Z,7.33
2018-08-09T19:56:13.341Z,7.37
2018-08-09T19:58:43.109Z,7.47
2018-08-09T20:01:13.258Z,8.53
2018-08-09T20:03:43.256Z,9.43
2018-08-09T20:06:13.197Z,8.97
2018-08-09T20:08:43.304Z,8.37
2018-08-09T20:11:13.099Z,8.23
2018-08-09T20:13:43.001Z,8.10
2018-08-09T20:16:12.794Z,8.97
2018-08-09T20:18:42.469Z,7.93
2018-08-09T20:21:12.556Z,8.30
2018-08-09T20:23:42.337Z,8.40
2018-08-09T20:26:12.260Z,8.20
2018-08-09T20:28:42.000Z,8.90
2018-08-09T20:31:11.704Z,8.80
2018-08-09T20:33:41.635Z,9.17
2018-08-09T20:36:11.341Z,9.00
2018-08-09T20:38:41.448Z,9.20
2018-08-09T20:41:12.513Z,9.80
2018-08-09T20:43:42.245Z,10.07
2018-08-09T20:49:19.640Z,12.00
2018-08-09T20:51:57.816Z,13.20
2018-08-09T20:54:28.087Z,13.73
2018-08-09T20:56:57.896Z,13.80
2018-08-09T20:59:27.640Z,14.50
2018-08-09T21:01:57.795Z,14.57
2018-08-09T21:04:27.544Z,13.87
2018-08-09T21:06:57.854Z,14.53
2018-08-09T21:09:28.041Z,14.43
2018-08-09T21:11:57.762Z,14.87
2018-08-09T21:14:27.754Z,15.93
2018-08-09T21:16:57.452Z,14.90
2018-08-09T21:19:27.504Z,16.20
2018-08-09T21:21:57.264Z,17.27
2018-08-09T21:24:27.020Z,16.57
2018-08-09T21:26:57.456Z,16.37
2018-08-09T21:29:27.340Z,15.40
2018-08-09T21:31:57.078Z,14.40
2018-08-09T21:34:27.168Z,15.63
2018-08-09T21:36:56.892Z,14.97
2018-08-09T21:39:26.617Z,14.13
2018-08-09T21:41:56.804Z,14.30
2018-08-09T21:44:26.536Z,14.43
2018-08-09T21:46:56.261Z,12.60
2018-08-09T21:49:26.480Z,12.73
2018-08-09T21:51:56.333Z,13.17
2018-08-09T21:54:26.329Z,12.90
2018-08-09T21:56:56.092Z,13.60
2018-08-09T21:59:26.993Z,11.80
2018-08-09T22:01:57.302Z,12.90
2018-08-09T22:04:27.820Z,12.23
2018-08-09T22:07:02.753Z,13.13
2018-08-09T22:09:37.796Z,11.83
2018-08-09T22:12:16.596Z,12.20
2018-08-09T22:14:51.947Z,12.17
2018-08-09T22:17:26.689Z,12.50
2018-08-09T22:20:01.421Z,11.63
2018-08-09T22:22:32.185Z,10.60
2018-08-09T22:25:01.888Z,10.60
2018-08-09T22:27:31.650Z,8.13
2018-08-09T22:30:01.848Z,7.80
2018-08-09T22:32:31.642Z,6.37
2018-08-09T22:35:01.668Z,6.43
2018-08-09T22:37:32.205Z,5.70
2018-08-09T22:40:02.608Z,5.83
2018-08-09T22:42:32.736Z,5.97
2018-08-09T22:45:06.296Z,5.20
2018-08-09T22:47:36.949Z,4.67
2018-08-09T22:50:07.050Z,4.67
2018-08-09T22:52:37.325Z,4.13
2018-08-09T22:55:07.088Z,3.77
2018-08-09T22:57:36.772Z,3.40
2018-08-09T23:00:11.429Z,3.77
2018-08-09T23:02:41.155Z,3.43
2018-08-09T23:05:11.390Z,3.03
2018-08-09T23:07:41.405Z,3.47
2018-08-09T23:10:11.227Z,3.33
2018-08-09T23:12:42.032Z,3.00
2018-08-09T23:15:12.560Z,2.80
2018-08-09T23:17:42.349Z,2.80
2018-08-09T23:20:12.735Z,2.83
2018-08-09T23:22:42.720Z,3.00
2018-08-09T23:25:14.105Z,3.10
2018-08-09T23:27:44.396Z,3.50
2018-08-09T23:30:14.344Z,3.00
2018-08-09T23:32:44.192Z,3.03
2018-08-09T23:35:14.260Z,3.00
2018-08-09T23:37:44.399Z,3.00
2018-08-09T23:40:14.568Z,3.73
2018-08-09T23:42:45.046Z,3.70
2018-08-09T23:45:14.829Z,4.27
2018-08-09T23:47:44.752Z,5.00
2018-08-09T23:50:14.684Z,4.87
2018-08-09T23:52:44.836Z,4.70
2018-08-09T23:55:16.888Z,5.03
2018-08-09T23:57:47.112Z,4.77
